sensor_id;sensor_type;location;lat;lon;timestamp;P1;durP1;ratioP1;P2;durP2;ratioP2
10403;SDS011;5248;47.374;8.486;2024-03-23T00:53:55;2.17;;;2.00;;
10403;SDS011;5248;47.374;8.486;2024-03-23T00:56:21;2.10;;;1.90;;
10403;SDS011;5248;47.374;8.486;2024-03-23T00:58:47;2.37;;;1.80;;
10403;SDS011;5248;47.374;8.486;2024-03-23T01:01:13;1.85;;;1.75;;
10403;SDS011;5248;47.374;8.486;2024-03-23T01:03:39;5.70;;;2.10;;
10403;SDS011;5248;47.374;8.486;2024-03-23T01:06:06;2.10;;;1.90;;
10403;SDS011;5248;47.374;8.486;2024-03-23T01:08:32;2.60;;;2.33;;
10403;SDS011;5248;47.374;8.486;2024-03-23T01:11:00;2.20;;;1.95;;
10403;SDS011;5248;47.374;8.486;2024-03-23T01:13:27;2.20;;;1.97;;
10403;SDS011;5248;47.374;8.486;2024-03-23T01:15:54;2.08;;;1.73;;
10403;SDS011;5248;47.374;8.486;2024-03-23T01:18:23;2.25;;;2.08;;
10403;SDS011;5248;47.374;8.486;2024-03-23T01:20:51;2.97;;;2.40;;
10403;SDS011;5248;47.374;8.486;2024-03-23T01:23:18;1.90;;;1.80;;
10403;SDS011;5248;47.374;8.486;2024-03-23T01:25:51;1.65;;;1.55;;
10403;SDS011;5248;47.374;8.486;2024-03-23T01:28:20;1.90;;;1.80;;
10403;SDS011;5248;47.374;8.486;2024-03-23T01:30:48;2.92;;;1.98;;
10403;SDS011;5248;47.374;8.486;2024-03-23T01:33:14;1.88;;;1.77;;
10403;SDS011;5248;47.374;8.486;2024-03-23T01:35:44;2.40;;;2.20;;
10403;SDS011;5248;47.374;8.486;2024-03-23T01:38:10;2.10;;;1.90;;
10403;SDS011;5248;47.374;8.486;2024-03-23T01:40:39;2.55;;;1.90;;
10403;SDS011;5248;47.374;8.486;2024-03-23T01:43:05;3.05;;;2.00;;
10403;SDS011;5248;47.374;8.486;2024-03-23T01:45:35;2.35;;;2.15;;
10403;SDS011;5248;47.374;8.486;2024-03-23T01:48:01;2.08;;;1.88;;
10403;SDS011;5248;47.374;8.486;2024-03-23T01:50:28;1.95;;;1.77;;
10403;SDS011;5248;47.374;8.486;2024-03-23T01:52:58;1.80;;;1.70;;
10403;SDS011;5248;47.374;8.486;2024-03-23T01:55:25;2.35;;;2.15;;
10403;SDS011;5248;47.374;8.486;2024-03-23T01:57:52;2.20;;;1.55;;
10403;SDS011;5248;47.374;8.486;2024-03-23T02:00:19;1.98;;;1.88;;
10403;SDS011;5248;47.374;8.486;2024-03-23T02:02:48;2.72;;;1.88;;
10403;SDS011;5248;47.374;8.486;2024-03-23T02:05:15;2.20;;;2.10;;
10403;SDS011;5248;47.374;8.486;2024-03-23T02:07:41;2.23;;;2.07;;
10403;SDS011;5248;47.374;8.486;2024-03-23T02:10:11;2.80;;;2.47;;
10403;SDS011;5248;47.374;8.486;2024-03-23T02:12:38;5.43;;;2.40;;
10403;SDS011;5248;47.374;8.486;2024-03-23T02:15:06;2.20;;;2.10;;
10403;SDS011;5248;47.374;8.486;2024-03-23T02:17:34;2.20;;;2.10;;
10403;SDS011;5248;47.374;8.486;2024-03-23T02:20:02;3.08;;;2.13;;
10403;SDS011;5248;47.374;8.486;2024-03-23T02:22:34;2.57;;;2.37;;
10403;SDS011;5248;47.374;8.486;2024-03-23T02:25:03;2.53;;;2.03;;
10403;SDS011;5248;47.374;8.486;2024-03-23T02:27:29;2.43;;;1.90;;
10403;SDS011;5248;47.374;8.486;2024-03-23T02:29:56;3.38;;;1.98;;
10403;SDS011;5248;47.374;8.486;2024-03-23T02:32:21;1.77;;;1.67;;
10403;SDS011;5248;47.374;8.486;2024-03-23T02:34:48;2.00;;;1.83;;
10403;SDS011;5248;47.374;8.486;2024-03-23T02:37:14;1.58;;;1.42;;
10403;SDS011;5248;47.374;8.486;2024-03-23T02:39:45;1.67;;;1.57;;
10403;SDS011;5248;47.374;8.486;2024-03-23T02:42:11;3.63;;;1.90;;
10403;SDS011;5248;47.374;8.486;2024-03-23T02:44:38;3.07;;;1.73;;
10403;SDS011;5248;47.374;8.486;2024-03-23T02:47:04;1.80;;;1.70;;
10403;SDS011;5248;47.374;8.486;2024-03-23T02:49:31;2.97;;;1.63;;
10403;SDS011;5248;47.374;8.486;2024-03-23T02:51:57;3.22;;;1.70;;
10403;SDS011;5248;47.374;8.486;2024-03-23T02:54:24;1.88;;;1.73;;
10403;SDS011;5248;47.374;8.486;2024-03-23T02:56:49;2.15;;;1.70;;
10403;SDS011;5248;47.374;8.486;2024-03-23T02:59:17;5.18;;;1.80;;
10403;SDS011;5248;47.374;8.486;2024-03-23T03:01:43;1.80;;;1.70;;
10403;SDS011;5248;47.374;8.486;2024-03-23T03:04:09;1.50;;;1.40;;
10403;SDS011;5248;47.374;8.486;2024-03-23T03:06:35;1.55;;;1.45;;
10403;SDS011;5248;47.374;8.486;2024-03-23T03:09:01;1.55;;;1.45;;
10403;SDS011;5248;47.374;8.486;2024-03-23T03:11:27;1.95;;;1.67;;
10403;SDS011;5248;47.374;8.486;2024-03-23T03:13:54;2.17;;;2.00;;
10403;SDS011;5248;47.374;8.486;2024-03-23T03:16:20;1.85;;;1.67;;
10403;SDS011;5248;47.374;8.486;2024-03-23T03:18:47;1.60;;;1.50;;
10403;SDS011;5248;47.374;8.486;2024-03-23T03:21:13;1.52;;;1.30;;
10403;SDS011;5248;47.374;8.486;2024-03-23T03:23:41;1.75;;;1.65;;
10403;SDS011;5248;47.374;8.486;2024-03-23T03:26:07;1.25;;;1.25;;
10403;SDS011;5248;47.374;8.486;2024-03-23T03:28:34;1.67;;;1.50;;
10403;SDS011;5248;47.374;8.486;2024-03-23T03:31:00;1.90;;;1.70;;
10403;SDS011;5248;47.374;8.486;2024-03-23T03:33:30;2.47;;;1.80;;
10403;SDS011;5248;47.374;8.486;2024-03-23T03:35:56;1.95;;;1.80;;
10403;SDS011;5248;47.374;8.486;2024-03-23T03:38:24;3.10;;;1.95;;
10403;SDS011;5248;47.374;8.486;2024-03-23T03:40:50;1.83;;;1.73;;
10403;SDS011;5248;47.374;8.486;2024-03-23T03:43:17;3.17;;;2.45;;
10403;SDS011;5248;47.374;8.486;2024-03-23T03:45:43;2.28;;;1.70;;
10403;SDS011;5248;47.374;8.486;2024-03-23T03:48:17;1.80;;;1.70;;
10403;SDS011;5248;47.374;8.486;2024-03-23T03:50:44;1.92;;;1.80;;
10403;SDS011;5248;47.374;8.486;2024-03-23T03:53:11;2.95;;;2.00;;
10403;SDS011;5248;47.374;8.486;2024-03-23T03:55:37;3.03;;;1.88;;
10403;SDS011;5248;47.374;8.486;2024-03-23T03:58:03;5.00;;;2.63;;
10403;SDS011;5248;47.374;8.486;2024-03-23T04:00:29;1.83;;;1.58;;
10403;SDS011;5248;47.374;8.486;2024-03-23T04:02:56;2.33;;;2.13;;
10403;SDS011;5248;47.374;8.486;2024-03-23T04:05:21;1.88;;;1.77;;
10403;SDS011;5248;47.374;8.486;2024-03-23T04:07:49;2.55;;;1.70;;
10403;SDS011;5248;47.374;8.486;2024-03-23T04:10:15;4.23;;;1.83;;
10403;SDS011;5248;47.374;8.486;2024-03-23T04:12:42;5.25;;;1.90;;
10403;SDS011;5248;47.374;8.486;2024-03-23T04:15:08;1.70;;;1.57;;
10403;SDS011;5248;47.374;8.486;2024-03-23T04:17:35;1.85;;;1.67;;
10403;SDS011;5248;47.374;8.486;2024-03-23T04:20:01;2.20;;;2.00;;
10403;SDS011;5248;47.374;8.486;2024-03-23T04:22:30;1.77;;;1.67;;
10403;SDS011;5248;47.374;8.486;2024-03-23T04:24:58;1.80;;;1.70;;
10403;SDS011;5248;47.374;8.486;2024-03-23T04:27:25;2.60;;;1.75;;
10403;SDS011;5248;47.374;8.486;2024-03-23T04:29:51;2.00;;;1.80;;
10403;SDS011;5248;47.374;8.486;2024-03-23T04:32:18;3.70;;;1.63;;
10403;SDS011;5248;47.374;8.486;2024-03-23T04:34:44;4.43;;;1.60;;
10403;SDS011;5248;47.374;8.486;2024-03-23T04:37:11;1.92;;;1.63;;
10403;SDS011;5248;47.374;8.486;2024-03-23T04:39:37;3.85;;;2.10;;
10403;SDS011;5248;47.374;8.486;2024-03-23T04:42:06;3.47;;;1.77;;
10403;SDS011;5248;47.374;8.486;2024-03-23T04:44:32;4.00;;;2.07;;
10403;SDS011;5248;47.374;8.486;2024-03-23T04:46:59;1.75;;;1.52;;
10403;SDS011;5248;47.374;8.486;2024-03-23T04:49:26;1.97;;;1.87;;
10403;SDS011;5248;47.374;8.486;2024-03-23T04:51:52;1.92;;;1.80;;
10403;SDS011;5248;47.374;8.486;2024-03-23T04:54:18;3.22;;;2.15;;
10403;SDS011;5248;47.374;8.486;2024-03-23T04:56:47;2.35;;;1.55;;
10403;SDS011;5248;47.374;8.486;2024-03-23T04:59:15;2.22;;;2.10;;
10403;SDS011;5248;47.374;8.486;2024-03-23T05:01:40;2.60;;;1.80;;
10403;SDS011;5248;47.374;8.486;2024-03-23T05:04:08;2.10;;;1.90;;
10403;SDS011;5248;47.374;8.486;2024-03-23T05:06:33;3.47;;;1.77;;
10403;SDS011;5248;47.374;8.486;2024-03-23T05:09:00;2.87;;;1.87;;
10403;SDS011;5248;47.374;8.486;2024-03-23T05:11:27;2.60;;;2.13;;
10403;SDS011;5248;47.374;8.486;2024-03-23T05:13:54;3.83;;;1.90;;
10403;SDS011;5248;47.374;8.486;2024-03-23T05:16:21;2.63;;;2.23;;
10403;SDS011;5248;47.374;8.486;2024-03-23T05:18:48;2.05;;;1.63;;
10403;SDS011;5248;47.374;8.486;2024-03-23T05:21:14;1.98;;;1.88;;
10403;SDS011;5248;47.374;8.486;2024-03-23T05:23:40;3.53;;;2.05;;
10403;SDS011;5248;47.374;8.486;2024-03-23T05:26:08;1.90;;;1.60;;
10403;SDS011;5248;47.374;8.486;2024-03-23T05:28:34;2.47;;;1.85;;
10403;SDS011;5248;47.374;8.486;2024-03-23T05:31:01;3.20;;;2.58;;
10403;SDS011;5248;47.374;8.486;2024-03-23T05:33:28;3.88;;;2.65;;
10403;SDS011;5248;47.374;8.486;2024-03-23T05:35:58;3.90;;;2.73;;
10403;SDS011;5248;47.374;8.486;2024-03-23T05:38:24;2.77;;;2.40;;
10403;SDS011;5248;47.374;8.486;2024-03-23T05:40:53;3.53;;;2.90;;
10403;SDS011;5248;47.374;8.486;2024-03-23T05:43:20;2.90;;;2.70;;
10403;SDS011;5248;47.374;8.486;2024-03-23T05:45:52;2.90;;;2.70;;
10403;SDS011;5248;47.374;8.486;2024-03-23T05:48:19;4.70;;;3.00;;
10403;SDS011;5248;47.374;8.486;2024-03-23T05:50:47;3.83;;;2.87;;
10403;SDS011;5248;47.374;8.486;2024-03-23T05:53:12;3.15;;;2.80;;
10403;SDS011;5248;47.374;8.486;2024-03-23T05:55:39;4.07;;;3.00;;
10403;SDS011;5248;47.374;8.486;2024-03-23T05:58:04;4.40;;;3.23;;
10403;SDS011;5248;47.374;8.486;2024-03-23T06:00:31;3.60;;;2.90;;
10403;SDS011;5248;47.374;8.486;2024-03-23T06:02:56;4.77;;;2.97;;
10403;SDS011;5248;47.374;8.486;2024-03-23T06:05:23;3.67;;;2.57;;
10403;SDS011;5248;47.374;8.486;2024-03-23T06:07:50;3.67;;;2.87;;
10403;SDS011;5248;47.374;8.486;2024-03-23T06:10:17;3.53;;;3.07;;
10403;SDS011;5248;47.374;8.486;2024-03-23T06:12:43;3.00;;;2.53;;
10403;SDS011;5248;47.374;8.486;2024-03-23T06:15:11;3.07;;;2.47;;
10403;SDS011;5248;47.374;8.486;2024-03-23T06:17:38;3.67;;;2.60;;
10403;SDS011;5248;47.374;8.486;2024-03-23T06:20:05;4.40;;;2.57;;
10403;SDS011;5248;47.374;8.486;2024-03-23T06:22:32;2.67;;;2.47;;
10403;SDS011;5248;47.374;8.486;2024-03-23T06:25:00;2.93;;;2.73;;
10403;SDS011;5248;47.374;8.486;2024-03-23T06:27:27;3.53;;;3.30;;
10403;SDS011;5248;47.374;8.486;2024-03-23T06:29:54;4.27;;;3.80;;
10403;SDS011;5248;47.374;8.486;2024-03-23T06:32:20;4.97;;;3.40;;
10403;SDS011;5248;47.374;8.486;2024-03-23T06:34:47;4.00;;;3.50;;
10403;SDS011;5248;47.374;8.486;2024-03-23T06:37:12;4.03;;;3.67;;
10403;SDS011;5248;47.374;8.486;2024-03-23T06:39:39;3.60;;;3.30;;
10403;SDS011;5248;47.374;8.486;2024-03-23T06:42:06;3.60;;;3.40;;
10403;SDS011;5248;47.374;8.486;2024-03-23T06:44:33;3.50;;;3.30;;
10403;SDS011;5248;47.374;8.486;2024-03-23T06:47:00;3.37;;;3.17;;
10403;SDS011;5248;47.374;8.486;2024-03-23T06:49:27;4.43;;;4.03;;
10403;SDS011;5248;47.374;8.486;2024-03-23T06:51:53;4.30;;;4.00;;
10403;SDS011;5248;47.374;8.486;2024-03-23T06:54:20;4.67;;;4.03;;
10403;SDS011;5248;47.374;8.486;2024-03-23T06:56:45;4.90;;;4.50;;
10403;SDS011;5248;47.374;8.486;2024-03-23T06:59:15;4.13;;;3.73;;
10403;SDS011;5248;47.374;8.486;2024-03-23T07:01:40;4.17;;;3.87;;
10403;SDS011;5248;47.374;8.486;2024-03-23T07:04:07;4.57;;;4.17;;
10403;SDS011;5248;47.374;8.486;2024-03-23T07:06:42;6.00;;;4.23;;
10403;SDS011;5248;47.374;8.486;2024-03-23T07:09:09;4.27;;;3.97;;
10403;SDS011;5248;47.374;8.486;2024-03-23T07:11:35;3.97;;;3.60;;
10403;SDS011;5248;47.374;8.486;2024-03-23T07:14:01;5.10;;;3.97;;
10403;SDS011;5248;47.374;8.486;2024-03-23T07:16:29;4.03;;;3.67;;
10403;SDS011;5248;47.374;8.486;2024-03-23T07:18:56;4.50;;;3.70;;
10403;SDS011;5248;47.374;8.486;2024-03-23T07:21:22;4.03;;;3.67;;
10403;SDS011;5248;47.374;8.486;2024-03-23T07:23:49;3.47;;;3.20;;
10403;SDS011;5248;47.374;8.486;2024-03-23T07:26:14;2.60;;;2.40;;
10403;SDS011;5248;47.374;8.486;2024-03-23T07:28:42;2.93;;;2.63;;
10403;SDS011;5248;47.374;8.486;2024-03-23T07:31:10;2.20;;;2.10;;
10403;SDS011;5248;47.374;8.486;2024-03-23T07:33:41;2.60;;;2.40;;
10403;SDS011;5248;47.374;8.486;2024-03-23T07:36:07;2.03;;;1.93;;
10403;SDS011;5248;47.374;8.486;2024-03-23T07:38:34;2.20;;;2.10;;
10403;SDS011;5248;47.374;8.486;2024-03-23T07:41:04;2.47;;;2.27;;
10403;SDS011;5248;47.374;8.486;2024-03-23T07:43:31;2.20;;;2.00;;
10403;SDS011;5248;47.374;8.486;2024-03-23T07:45:56;2.60;;;2.40;;
10403;SDS011;5248;47.374;8.486;2024-03-23T07:48:25;2.07;;;1.97;;
10403;SDS011;5248;47.374;8.486;2024-03-23T07:51:01;2.50;;;2.30;;
10403;SDS011;5248;47.374;8.486;2024-03-23T07:53:29;1.97;;;1.87;;
10403;SDS011;5248;47.374;8.486;2024-03-23T07:55:55;1.70;;;1.60;;
10403;SDS011;5248;47.374;8.486;2024-03-23T07:58:23;3.33;;;1.43;;
10403;SDS011;5248;47.374;8.486;2024-03-23T08:00:48;1.20;;;1.20;;
10403;SDS011;5248;47.374;8.486;2024-03-23T08:03:15;0.93;;;0.93;;
10403;SDS011;5248;47.374;8.486;2024-03-23T08:05:42;0.60;;;0.60;;
10403;SDS011;5248;47.374;8.486;2024-03-23T08:08:10;0.60;;;0.60;;
10403;SDS011;5248;47.374;8.486;2024-03-23T08:10:36;0.33;;;0.33;;
10403;SDS011;5248;47.374;8.486;2024-03-23T08:13:02;0.50;;;0.50;;
10403;SDS011;5248;47.374;8.486;2024-03-23T08:15:29;0.30;;;0.30;;
10403;SDS011;5248;47.374;8.486;2024-03-23T08:17:57;0.47;;;0.30;;
10403;SDS011;5248;47.374;8.486;2024-03-23T08:20:23;0.20;;;0.20;;
10403;SDS011;5248;47.374;8.486;2024-03-23T08:22:50;0.60;;;0.30;;
10403;SDS011;5248;47.374;8.486;2024-03-23T08:25:18;0.30;;;0.30;;
10403;SDS011;5248;47.374;8.486;2024-03-23T08:27:45;1.23;;;0.50;;
10403;SDS011;5248;47.374;8.486;2024-03-23T08:30:11;1.03;;;0.40;;
10403;SDS011;5248;47.374;8.486;2024-03-23T08:32:38;2.27;;;0.40;;
10403;SDS011;5248;47.374;8.486;2024-03-23T08:35:04;2.37;;;0.70;;
10403;SDS011;5248;47.374;8.486;2024-03-23T08:37:32;0.73;;;0.57;;
10403;SDS011;5248;47.374;8.486;2024-03-23T08:39:57;1.20;;;0.80;;
10403;SDS011;5248;47.374;8.486;2024-03-23T08:42:27;1.73;;;0.60;;
10403;SDS011;5248;47.374;8.486;2024-03-23T08:44:52;0.83;;;0.80;;
10403;SDS011;5248;47.374;8.486;2024-03-23T08:47:19;1.77;;;1.03;;
10403;SDS011;5248;47.374;8.486;2024-03-23T08:49:44;3.83;;;0.70;;
10403;SDS011;5248;47.374;8.486;2024-03-23T08:52:11;2.40;;;0.90;;
10403;SDS011;5248;47.374;8.486;2024-03-23T08:54:38;3.13;;;1.23;;
10403;SDS011;5248;47.374;8.486;2024-03-23T08:57:08;1.33;;;1.03;;
10403;SDS011;5248;47.374;8.486;2024-03-23T08:59:37;2.57;;;1.03;;
10403;SDS011;5248;47.374;8.486;2024-03-23T09:02:03;1.93;;;1.13;;
10403;SDS011;5248;47.374;8.486;2024-03-23T09:04:29;4.03;;;1.23;;
10403;SDS011;5248;47.374;8.486;2024-03-23T09:06:56;2.57;;;1.03;;
10403;SDS011;5248;47.374;8.486;2024-03-23T09:09:24;4.13;;;1.87;;
10403;SDS011;5248;47.374;8.486;2024-03-23T09:11:50;1.90;;;1.37;;
10403;SDS011;5248;47.374;8.486;2024-03-23T09:14:16;3.67;;;1.53;;
10403;SDS011;5248;47.374;8.486;2024-03-23T09:16:44;2.17;;;1.23;;
10403;SDS011;5248;47.374;8.486;2024-03-23T09:19:10;3.80;;;1.47;;
10403;SDS011;5248;47.374;8.486;2024-03-23T09:21:37;3.63;;;1.87;;
10403;SDS011;5248;47.374;8.486;2024-03-23T09:24:03;3.60;;;1.37;;
10403;SDS011;5248;47.374;8.486;2024-03-23T09:26:30;2.13;;;1.40;;
10403;SDS011;5248;47.374;8.486;2024-03-23T09:28:55;1.97;;;1.37;;
10403;SDS011;5248;47.374;8.486;2024-03-23T09:31:22;3.17;;;1.30;;
10403;SDS011;5248;47.374;8.486;2024-03-23T09:33:49;2.70;;;1.50;;
10403;SDS011;5248;47.374;8.486;2024-03-23T09:36:16;2.73;;;1.10;;
10403;SDS011;5248;47.374;8.486;2024-03-23T09:38:41;3.17;;;1.60;;
10403;SDS011;5248;47.374;8.486;2024-03-23T09:41:08;3.63;;;1.90;;
10403;SDS011;5248;47.374;8.486;2024-03-23T09:43:34;3.17;;;2.07;;
10403;SDS011;5248;47.374;8.486;2024-03-23T09:46:01;4.27;;;2.10;;
10403;SDS011;5248;47.374;8.486;2024-03-23T09:48:27;3.23;;;1.53;;
10403;SDS011;5248;47.374;8.486;2024-03-23T09:50:58;4.17;;;1.70;;
10403;SDS011;5248;47.374;8.486;2024-03-23T09:53:24;4.27;;;1.80;;
10403;SDS011;5248;47.374;8.486;2024-03-23T09:55:51;6.57;;;1.77;;
10403;SDS011;5248;47.374;8.486;2024-03-23T09:58:17;6.37;;;2.10;;
10403;SDS011;5248;47.374;8.486;2024-03-23T10:00:44;4.17;;;1.87;;
10403;SDS011;5248;47.374;8.486;2024-03-23T10:03:10;7.57;;;1.80;;
10403;SDS011;5248;47.374;8.486;2024-03-23T10:05:37;4.83;;;1.80;;
10403;SDS011;5248;47.374;8.486;2024-03-23T10:08:16;6.27;;;2.17;;
10403;SDS011;5248;47.374;8.486;2024-03-23T10:10:44;4.73;;;2.10;;
10403;SDS011;5248;47.374;8.486;2024-03-23T10:13:10;5.33;;;2.27;;
10403;SDS011;5248;47.374;8.486;2024-03-23T10:15:38;3.73;;;1.83;;
10403;SDS011;5248;47.374;8.486;2024-03-23T10:18:04;5.37;;;1.80;;
10403;SDS011;5248;47.374;8.486;2024-03-23T10:20:43;5.70;;;2.17;;
10403;SDS011;5248;47.374;8.486;2024-03-23T10:23:11;4.17;;;1.87;;
10403;SDS011;5248;47.374;8.486;2024-03-23T10:25:42;5.73;;;1.63;;
10403;SDS011;5248;47.374;8.486;2024-03-23T10:28:07;10.63;;;2.37;;
10403;SDS011;5248;47.374;8.486;2024-03-23T10:30:34;4.47;;;1.77;;
10403;SDS011;5248;47.374;8.486;2024-03-23T10:33:06;4.33;;;1.93;;
10403;SDS011;5248;47.374;8.486;2024-03-23T10:35:33;4.53;;;1.77;;
10403;SDS011;5248;47.374;8.486;2024-03-23T10:37:59;4.50;;;1.90;;
10403;SDS011;5248;47.374;8.486;2024-03-23T10:40:27;6.53;;;2.00;;
10403;SDS011;5248;47.374;8.486;2024-03-23T10:42:52;5.17;;;1.87;;
10403;SDS011;5248;47.374;8.486;2024-03-23T10:45:22;6.07;;;2.40;;
10403;SDS011;5248;47.374;8.486;2024-03-23T10:47:47;3.33;;;1.73;;
10403;SDS011;5248;47.374;8.486;2024-03-23T10:50:17;4.40;;;1.80;;
10403;SDS011;5248;47.374;8.486;2024-03-23T10:52:43;5.13;;;1.70;;
10403;SDS011;5248;47.374;8.486;2024-03-23T10:55:12;4.60;;;1.90;;
10403;SDS011;5248;47.374;8.486;2024-03-23T10:57:41;4.43;;;1.63;;
10403;SDS011;5248;47.374;8.486;2024-03-23T11:00:10;4.00;;;1.70;;
10403;SDS011;5248;47.374;8.486;2024-03-23T11:02:36;2.23;;;1.40;;
10403;SDS011;5248;47.374;8.486;2024-03-23T11:05:07;2.40;;;1.63;;
10403;SDS011;5248;47.374;8.486;2024-03-23T11:07:55;4.37;;;1.60;;
10403;SDS011;5248;47.374;8.486;2024-03-23T11:10:25;5.50;;;1.40;;
10403;SDS011;5248;47.374;8.486;2024-03-23T11:12:53;3.67;;;1.50;;
10403;SDS011;5248;47.374;8.486;2024-03-23T11:15:20;3.13;;;1.37;;
10403;SDS011;5248;47.374;8.486;2024-03-23T11:20:33;2.83;;;1.20;;
10403;SDS011;5248;47.374;8.486;2024-03-23T11:22:59;4.30;;;1.67;;
10403;SDS011;5248;47.374;8.486;2024-03-23T11:25:26;4.30;;;2.07;;
10403;SDS011;5248;47.374;8.486;2024-03-23T11:27:54;3.23;;;1.40;;
10403;SDS011;5248;47.374;8.486;2024-03-23T11:30:23;3.47;;;1.50;;
10403;SDS011;5248;47.374;8.486;2024-03-23T11:32:50;2.17;;;1.17;;
10403;SDS011;5248;47.374;8.486;2024-03-23T11:35:25;2.57;;;1.23;;
10403;SDS011;5248;47.374;8.486;2024-03-23T11:38:03;2.87;;;1.47;;
10403;SDS011;5248;47.374;8.486;2024-03-23T11:40:34;1.63;;;1.00;;
10403;SDS011;5248;47.374;8.486;2024-03-23T11:43:03;2.83;;;1.60;;
10403;SDS011;5248;47.374;8.486;2024-03-23T11:45:33;5.37;;;2.00;;
10403;SDS011;5248;47.374;8.486;2024-03-23T11:48:04;4.27;;;1.37;;
10403;SDS011;5248;47.374;8.486;2024-03-23T11:50:32;4.07;;;1.40;;
10403;SDS011;5248;47.374;8.486;2024-03-23T11:53:12;3.83;;;1.70;;
10403;SDS011;5248;47.374;8.486;2024-03-23T11:55:41;2.20;;;1.27;;
10403;SDS011;5248;47.374;8.486;2024-03-23T11:58:09;3.13;;;1.07;;
10403;SDS011;5248;47.374;8.486;2024-03-23T12:00:36;1.83;;;0.77;;
10403;SDS011;5248;47.374;8.486;2024-03-23T12:03:02;5.87;;;1.40;;
10403;SDS011;5248;47.374;8.486;2024-03-23T12:05:29;3.27;;;1.37;;
10403;SDS011;5248;47.374;8.486;2024-03-23T12:07:55;1.60;;;1.47;;
10403;SDS011;5248;47.374;8.486;2024-03-23T12:10:38;3.37;;;1.40;;
10403;SDS011;5248;47.374;8.486;2024-03-23T12:13:04;2.70;;;1.07;;
10403;SDS011;5248;47.374;8.486;2024-03-23T12:15:32;3.43;;;1.53;;
10403;SDS011;5248;47.374;8.486;2024-03-23T12:18:05;3.03;;;1.30;;
10403;SDS011;5248;47.374;8.486;2024-03-23T12:20:33;3.13;;;1.60;;
10403;SDS011;5248;47.374;8.486;2024-03-23T12:23:04;1.90;;;1.30;;
10403;SDS011;5248;47.374;8.486;2024-03-23T12:25:35;1.83;;;1.17;;
10403;SDS011;5248;47.374;8.486;2024-03-23T12:28:01;2.23;;;1.30;;
10403;SDS011;5248;47.374;8.486;2024-03-23T12:30:28;3.43;;;1.50;;
10403;SDS011;5248;47.374;8.486;2024-03-23T12:32:55;3.23;;;1.33;;
10403;SDS011;5248;47.374;8.486;2024-03-23T12:35:22;3.90;;;1.40;;
10403;SDS011;5248;47.374;8.486;2024-03-23T12:37:47;3.63;;;1.20;;
10403;SDS011;5248;47.374;8.486;2024-03-23T12:40:14;4.33;;;1.67;;
10403;SDS011;5248;47.374;8.486;2024-03-23T12:42:39;5.40;;;1.60;;
10403;SDS011;5248;47.374;8.486;2024-03-23T12:45:06;2.87;;;1.13;;
10403;SDS011;5248;47.374;8.486;2024-03-23T12:47:33;3.08;;;1.65;;
10403;SDS011;5248;47.374;8.486;2024-03-23T12:50:01;3.35;;;1.70;;
10403;SDS011;5248;47.374;8.486;2024-03-23T12:52:26;4.25;;;1.58;;
10403;SDS011;5248;47.374;8.486;2024-03-23T12:54:54;3.40;;;1.38;;
10403;SDS011;5248;47.374;8.486;2024-03-23T12:57:21;5.25;;;1.85;;
10403;SDS011;5248;47.374;8.486;2024-03-23T12:59:48;2.58;;;1.30;;
10403;SDS011;5248;47.374;8.486;2024-03-23T13:02:16;4.07;;;1.40;;
10403;SDS011;5248;47.374;8.486;2024-03-23T13:04:45;4.28;;;1.80;;
10403;SDS011;5248;47.374;8.486;2024-03-23T13:07:13;4.38;;;1.77;;
10403;SDS011;5248;47.374;8.486;2024-03-23T13:09:40;3.70;;;1.63;;
10403;SDS011;5248;47.374;8.486;2024-03-23T13:12:06;5.03;;;1.63;;
10403;SDS011;5248;47.374;8.486;2024-03-23T13:14:33;3.15;;;1.38;;
10403;SDS011;5248;47.374;8.486;2024-03-23T13:16:59;3.20;;;1.70;;
10403;SDS011;5248;47.374;8.486;2024-03-23T13:19:27;2.95;;;1.42;;
10403;SDS011;5248;47.374;8.486;2024-03-23T13:21:56;2.30;;;1.30;;
10403;SDS011;5248;47.374;8.486;2024-03-23T13:24:24;4.28;;;1.70;;
10403;SDS011;5248;47.374;8.486;2024-03-23T13:26:50;3.28;;;1.20;;
10403;SDS011;5248;47.374;8.486;2024-03-23T13:29:17;2.17;;;1.00;;
10403;SDS011;5248;47.374;8.486;2024-03-23T13:31:43;3.38;;;1.00;;
10403;SDS011;5248;47.374;8.486;2024-03-23T13:34:10;2.80;;;1.65;;
10403;SDS011;5248;47.374;8.486;2024-03-23T13:36:35;2.08;;;1.10;;
10403;SDS011;5248;47.374;8.486;2024-03-23T13:39:02;5.72;;;1.60;;
10403;SDS011;5248;47.374;8.486;2024-03-23T13:41:32;2.72;;;1.40;;
10403;SDS011;5248;47.374;8.486;2024-03-23T13:43:59;3.50;;;1.33;;
10403;SDS011;5248;47.374;8.486;2024-03-23T13:46:26;2.10;;;1.30;;
10403;SDS011;5248;47.374;8.486;2024-03-23T13:48:55;2.95;;;1.60;;
10403;SDS011;5248;47.374;8.486;2024-03-23T13:51:23;2.33;;;1.50;;
10403;SDS011;5248;47.374;8.486;2024-03-23T13:53:52;3.15;;;1.38;;
10403;SDS011;5248;47.374;8.486;2024-03-23T13:56:19;3.60;;;1.50;;
10403;SDS011;5248;47.374;8.486;2024-03-23T13:58:47;3.50;;;1.27;;
10403;SDS011;5248;47.374;8.486;2024-03-23T14:01:15;1.98;;;1.30;;
10403;SDS011;5248;47.374;8.486;2024-03-23T14:03:43;3.77;;;1.93;;
10403;SDS011;5248;47.374;8.486;2024-03-23T14:06:09;2.70;;;1.40;;
10403;SDS011;5248;47.374;8.486;2024-03-23T14:08:36;4.53;;;1.90;;
10403;SDS011;5248;47.374;8.486;2024-03-23T14:11:04;4.50;;;2.22;;
10403;SDS011;5248;47.374;8.486;2024-03-23T14:13:31;5.13;;;1.53;;
10403;SDS011;5248;47.374;8.486;2024-03-23T14:15:58;3.60;;;1.50;;
10403;SDS011;5248;47.374;8.486;2024-03-23T14:18:25;3.93;;;1.47;;
10403;SDS011;5248;47.374;8.486;2024-03-23T14:20:51;2.90;;;1.42;;
10403;SDS011;5248;47.374;8.486;2024-03-23T14:23:18;3.87;;;1.63;;
10403;SDS011;5248;47.374;8.486;2024-03-23T14:25:43;4.53;;;1.50;;
10403;SDS011;5248;47.374;8.486;2024-03-23T14:28:11;5.20;;;1.63;;
10403;SDS011;5248;47.374;8.486;2024-03-23T14:30:39;2.87;;;1.90;;
10403;SDS011;5248;47.374;8.486;2024-03-23T14:33:08;2.00;;;0.90;;
10403;SDS011;5248;47.374;8.486;2024-03-23T14:35:34;4.83;;;1.90;;
10403;SDS011;5248;47.374;8.486;2024-03-23T14:38:01;4.63;;;1.53;;
10403;SDS011;5248;47.374;8.486;2024-03-23T14:40:27;6.50;;;2.67;;
10403;SDS011;5248;47.374;8.486;2024-03-23T14:42:54;3.50;;;1.50;;
10403;SDS011;5248;47.374;8.486;2024-03-23T14:45:19;1.95;;;1.20;;
10403;SDS011;5248;47.374;8.486;2024-03-23T14:47:47;3.40;;;1.40;;
10403;SDS011;5248;47.374;8.486;2024-03-23T14:50:13;3.77;;;1.43;;
10403;SDS011;5248;47.374;8.486;2024-03-23T14:52:43;3.23;;;1.40;;
10403;SDS011;5248;47.374;8.486;2024-03-23T14:55:09;2.70;;;1.70;;
10403;SDS011;5248;47.374;8.486;2024-03-23T14:57:36;3.13;;;1.63;;
10403;SDS011;5248;47.374;8.486;2024-03-23T15:00:04;5.40;;;1.70;;
10403;SDS011;5248;47.374;8.486;2024-03-23T15:02:32;4.30;;;1.80;;
10403;SDS011;5248;47.374;8.486;2024-03-23T15:04:58;1.20;;;1.07;;
10403;SDS011;5248;47.374;8.486;2024-03-23T15:07:26;2.30;;;1.30;;
10403;SDS011;5248;47.374;8.486;2024-03-23T15:09:53;3.72;;;1.65;;
10403;SDS011;5248;47.374;8.486;2024-03-23T15:12:19;2.97;;;1.13;;
10403;SDS011;5248;47.374;8.486;2024-03-23T15:14:46;3.45;;;1.33;;
10403;SDS011;5248;47.374;8.486;2024-03-23T15:17:13;3.43;;;1.07;;
10403;SDS011;5248;47.374;8.486;2024-03-23T15:19:39;2.57;;;1.17;;
10403;SDS011;5248;47.374;8.486;2024-03-23T15:22:07;3.17;;;1.37;;
10403;SDS011;5248;47.374;8.486;2024-03-23T15:24:35;2.20;;;1.00;;
10403;SDS011;5248;47.374;8.486;2024-03-23T15:27:02;2.97;;;1.30;;
10403;SDS011;5248;47.374;8.486;2024-03-23T15:29:29;2.03;;;1.00;;
10403;SDS011;5248;47.374;8.486;2024-03-23T15:31:56;2.80;;;1.33;;
10403;SDS011;5248;47.374;8.486;2024-03-23T15:34:21;2.67;;;1.37;;
10403;SDS011;5248;47.374;8.486;2024-03-23T15:36:50;2.57;;;1.37;;
10403;SDS011;5248;47.374;8.486;2024-03-23T15:39:16;1.27;;;1.00;;
10403;SDS011;5248;47.374;8.486;2024-03-23T15:41:46;2.53;;;1.37;;
10403;SDS011;5248;47.374;8.486;2024-03-23T15:44:11;2.17;;;1.00;;
10403;SDS011;5248;47.374;8.486;2024-03-23T15:46:38;2.20;;;1.17;;
10403;SDS011;5248;47.374;8.486;2024-03-23T15:49:04;4.10;;;1.20;;
10403;SDS011;5248;47.374;8.486;2024-03-23T15:51:31;3.30;;;1.27;;
10403;SDS011;5248;47.374;8.486;2024-03-23T15:53:59;3.53;;;1.13;;
10403;SDS011;5248;47.374;8.486;2024-03-23T15:56:26;4.40;;;1.20;;